Zeona, South Dakota
Current Conditions -  °F | °C
As of 2:35 AM on Sunday 23 Nov 2014 (Local Time) from KSPF Reporting Station
Clear Clear  
Wind Chill: 22°   Ceiling: Unl
Heat Index: 34°   Visibility: 10mi
Dew Point: 19°   Wind: 22mph
Humidity: 56%   Direction: 290°WNW
Pressure: 29.6"   Gusts: 31mph
Location:  45.0528°N, 102.806°W
Report Text: KSPF 230935Z AUTO 29019G27KT 10SM CLR 01/M07 A2960 RMK AO2
Loading
Personal Weather Stations






























Interactive Weather Map New forecast layout! Learn more

10-Day Weather Forecast

Advertisements
Track Severe Weather on mobile